createdAt,value
2023-02-11T00:01:30.819Z,7.87
2023-02-11T00:03:34.170Z,7.78
2023-02-11T00:05:37.605Z,7.84
2023-02-11T00:07:40.899Z,7.94
2023-02-11T00:09:44.252Z,8.00
2023-02-11T00:11:47.531Z,7.94
2023-02-11T00:13:52.505Z,7.94
2023-02-11T00:15:56.320Z,7.85
2023-02-11T00:17:59.601Z,7.81
2023-02-11T00:20:03.022Z,7.89
2023-02-11T00:22:06.340Z,7.84
2023-02-11T00:24:09.651Z,7.90
2023-02-11T00:26:14.163Z,7.70
2023-02-11T00:28:18.987Z,7.66
2023-02-11T00:30:23.988Z,7.73
2023-02-11T00:32:27.385Z,7.56
2023-02-11T00:34:30.675Z,7.64
2023-02-11T00:36:34.032Z,7.77
2023-02-11T00:38:37.485Z,7.61
2023-02-11T00:40:41.082Z,7.47
2023-02-11T00:42:44.397Z,7.72
2023-02-11T00:44:47.749Z,7.71
2023-02-11T00:46:54.861Z,7.75
2023-02-11T00:48:58.268Z,7.67
2023-02-11T00:51:02.071Z,7.57
2023-02-11T00:53:05.466Z,7.64
2023-02-11T00:55:09.653Z,7.43
2023-02-11T00:57:13.089Z,7.45
2023-02-11T00:59:16.432Z,7.51
2023-02-11T01:01:20.775Z,7.66
2023-02-11T01:03:25.560Z,7.70
2023-02-11T01:05:29.227Z,7.75
2023-02-11T01:07:32.643Z,7.73
2023-02-11T01:09:38.613Z,7.73
2023-02-11T01:11:42.372Z,7.61
2023-02-11T01:13:46.535Z,7.69
2023-02-11T01:15:50.326Z,7.70
2023-02-11T01:17:54.256Z,7.74
2023-02-11T01:19:59.063Z,7.80
2023-02-11T01:22:02.493Z,7.81
2023-02-11T01:24:06.132Z,7.82
2023-02-11T01:26:09.497Z,7.83
2023-02-11T01:28:18.049Z,7.63
2023-02-11T01:30:21.361Z,7.32
2023-02-11T01:32:24.695Z,7.55
2023-02-11T01:34:30.472Z,7.49
2023-02-11T01:36:35.092Z,7.52
2023-02-11T01:38:40.775Z,7.47
2023-02-11T01:40:48.577Z,7.42
2023-02-11T01:42:52.586Z,7.51
2023-02-11T01:44:58.543Z,7.47
2023-02-11T01:47:04.686Z,7.58
2023-02-11T01:49:11.705Z,7.58
2023-02-11T01:51:19.560Z,7.57
2023-02-11T01:53:42.086Z,7.54
2023-02-11T01:56:03.359Z,7.44
2023-02-11T01:58:07.524Z,7.36
2023-02-11T02:00:14.691Z,7.42
2023-02-11T02:02:25.014Z,7.41
2023-02-11T02:04:34.268Z,7.36
2023-02-11T02:06:43.173Z,7.37
2023-02-11T02:08:54.465Z,7.16
2023-02-11T02:11:00.797Z,7.27
2023-02-11T02:13:04.190Z,7.16
2023-02-11T02:15:20.203Z,7.16
2023-02-11T02:17:33.902Z,7.16
2023-02-11T02:20:04.205Z,7.16
2023-02-11T02:22:32.875Z,7.13
2023-02-11T02:25:10.646Z,7.22
2023-02-11T02:27:39.071Z,7.31
2023-02-11T02:30:18.793Z,7.31
2023-02-11T02:33:21.668Z,7.23
2023-02-11T02:35:33.547Z,7.19
2023-02-11T02:37:42.093Z,7.06
2023-02-11T02:39:49.647Z,6.93
2023-02-11T02:41:54.397Z,6.78
2023-02-11T02:43:58.269Z,6.63
2023-02-11T02:46:12.657Z,6.59
2023-02-11T02:48:27.798Z,6.58
2023-02-11T02:50:37.653Z,6.64
2023-02-11T02:52:53.586Z,6.74
2023-02-11T02:55:20.111Z,6.87
2023-02-11T02:57:33.377Z,6.86
2023-02-11T02:59:48.830Z,6.91
2023-02-11T03:02:06.142Z,6.98
2023-02-11T03:04:18.431Z,6.89
2023-02-11T03:06:31.883Z,7.05
2023-02-11T03:08:41.664Z,7.03
2023-02-11T03:10:48.311Z,6.85
2023-02-11T03:12:54.613Z,6.80
2023-02-11T03:15:00.301Z,6.79
2023-02-11T03:17:06.941Z,6.90
2023-02-11T03:19:14.250Z,7.01
2023-02-11T03:21:19.256Z,7.07
2023-02-11T03:23:29.486Z,6.95
2023-02-11T03:25:38.807Z,6.99
2023-02-11T03:27:47.586Z,6.95
2023-02-11T03:29:56.434Z,6.79
2023-02-11T03:32:04.716Z,6.97
2023-02-11T03:34:14.441Z,6.82
2023-02-11T03:36:23.942Z,6.83
2023-02-11T03:38:32.364Z,6.69
2023-02-11T03:40:39.258Z,6.82
2023-02-11T03:42:45.780Z,6.73
2023-02-11T03:44:52.783Z,6.60
2023-02-11T03:46:56.975Z,6.82
2023-02-11T03:49:04.488Z,6.95
2023-02-11T03:51:10.710Z,6.88
2023-02-11T03:53:15.852Z,7.00
2023-02-11T03:55:25.822Z,7.10
2023-02-11T03:57:29.479Z,7.24
2023-02-11T03:59:32.866Z,7.28
2023-02-11T04:01:36.219Z,7.28
2023-02-11T04:03:39.770Z,7.33
2023-02-11T04:05:43.236Z,7.40
2023-02-11T04:07:46.484Z,7.38
2023-02-11T04:09:49.902Z,7.41
2023-02-11T04:11:54.597Z,7.35
2023-02-11T04:13:57.935Z,7.22
2023-02-11T04:16:01.346Z,7.29
2023-02-11T04:18:05.373Z,7.13
2023-02-11T04:20:09.831Z,7.16
2023-02-11T04:22:13.215Z,7.09
2023-02-11T04:24:16.578Z,7.03
2023-02-11T04:26:20.011Z,7.02
2023-02-11T04:28:24.820Z,6.85
2023-02-11T04:30:28.202Z,6.96
2023-02-11T04:32:32.639Z,7.01
2023-02-11T04:34:36.120Z,6.85
2023-02-11T04:36:39.475Z,6.91
2023-02-11T04:38:42.825Z,7.02
2023-02-11T04:40:46.238Z,6.89
2023-02-11T04:42:49.548Z,7.07
2023-02-11T04:44:54.289Z,6.85
2023-02-11T04:46:57.925Z,6.81
2023-02-11T04:49:01.381Z,7.01
2023-02-11T04:51:05.166Z,6.73
2023-02-11T04:53:08.432Z,7.00
2023-02-11T04:55:12.979Z,7.07
2023-02-11T04:57:16.397Z,7.10
2023-02-11T04:59:19.900Z,7.02
2023-02-11T05:01:24.665Z,7.33
2023-02-11T05:03:27.963Z,7.27
2023-02-11T05:05:31.283Z,7.32
2023-02-11T05:07:34.955Z,7.36
2023-02-11T05:09:38.265Z,7.15
2023-02-11T05:11:41.888Z,6.84
2023-02-11T05:13:45.429Z,7.45
2023-02-11T05:15:49.126Z,7.43
2023-02-11T05:17:54.220Z,7.30
2023-02-11T05:19:57.582Z,7.35
2023-02-11T05:22:03.424Z,7.39
2023-02-11T05:24:08.077Z,7.37
2023-02-11T05:26:12.320Z,7.10
2023-02-11T05:28:15.737Z,7.43
2023-02-11T05:30:19.215Z,7.37
2023-02-11T05:32:22.618Z,7.41
2023-02-11T05:34:27.316Z,7.35
2023-02-11T05:36:33.470Z,6.95
2023-02-11T05:38:38.088Z,7.44
2023-02-11T05:40:41.810Z,7.35
2023-02-11T05:42:45.150Z,7.39
2023-02-11T05:44:50.549Z,7.27
2023-02-11T05:46:54.047Z,7.34
2023-02-11T05:48:57.585Z,6.97
2023-02-11T05:51:02.257Z,7.06
2023-02-11T05:53:06.822Z,6.98
2023-02-11T05:55:10.333Z,7.05
2023-02-11T05:57:13.766Z,6.94
2023-02-11T05:59:17.371Z,6.77
2023-02-11T06:01:20.895Z,6.83
2023-02-11T06:03:24.190Z,6.95
2023-02-11T06:05:27.868Z,6.89
2023-02-11T06:07:32.593Z,6.90
2023-02-11T06:09:35.891Z,6.98
2023-02-11T06:11:39.364Z,6.80
2023-02-11T06:13:42.821Z,6.79
2023-02-11T06:15:46.394Z,6.86
2023-02-11T06:17:49.682Z,7.01
2023-02-11T06:19:53.010Z,7.10
2023-02-11T06:21:56.963Z,7.15
2023-02-11T06:24:01.709Z,7.16
2023-02-11T06:26:07.010Z,6.97
2023-02-11T06:28:10.743Z,7.10
2023-02-11T06:30:15.207Z,6.84
2023-02-11T06:32:39.574Z,6.90
2023-02-11T06:34:42.300Z,7.01
2023-02-11T06:36:45.720Z,7.06
2023-02-11T06:38:49.995Z,6.97
2023-02-11T06:40:54.647Z,7.01
2023-02-11T06:42:58.006Z,6.91
2023-02-11T06:45:01.403Z,6.89
2023-02-11T06:47:05.159Z,7.05
2023-02-11T06:49:08.610Z,7.10
2023-02-11T06:51:13.716Z,7.11
2023-02-11T06:53:17.089Z,6.89
2023-02-11T06:55:20.668Z,6.96
2023-02-11T06:57:25.407Z,7.03
2023-02-11T06:59:29.027Z,7.08
2023-02-11T07:01:32.506Z,6.58
2023-02-11T07:03:37.672Z,7.12
2023-02-11T07:05:43.860Z,6.96
2023-02-11T07:07:47.308Z,7.02
2023-02-11T07:09:50.640Z,7.00
2023-02-11T07:11:54.152Z,6.96
2023-02-11T07:14:03.606Z,7.04
2023-02-11T07:16:07.554Z,7.00
2023-02-11T07:18:13.618Z,6.95
2023-02-11T07:20:18.267Z,6.95
2023-02-11T07:22:21.701Z,6.78
2023-02-11T07:24:25.189Z,6.89
2023-02-11T07:26:28.947Z,6.89
2023-02-11T07:28:32.823Z,6.76
2023-02-11T07:30:37.552Z,6.90
2023-02-11T07:32:40.974Z,6.82
2023-02-11T07:34:44.374Z,6.80
2023-02-11T07:36:48.932Z,6.95
2023-02-11T07:38:52.388Z,6.99
2023-02-11T07:40:55.708Z,6.89
2023-02-11T07:42:59.297Z,6.87
2023-02-11T07:45:02.744Z,7.04
2023-02-11T07:47:07.623Z,7.02
2023-02-11T07:49:11.409Z,7.14
2023-02-11T07:51:16.877Z,7.05
2023-02-11T07:53:20.225Z,7.08
2023-02-11T07:55:23.554Z,7.15
2023-02-11T07:57:26.902Z,6.95
2023-02-11T07:59:30.246Z,6.97
2023-02-11T08:01:33.790Z,6.74
2023-02-11T08:03:39.256Z,6.96
2023-02-11T08:05:43.810Z,7.07
2023-02-11T08:07:47.423Z,6.95
2023-02-11T08:09:50.780Z,7.08
2023-02-11T08:11:54.361Z,7.01
2023-02-11T08:13:58.254Z,6.86
2023-02-11T08:16:01.702Z,6.97
2023-02-11T08:18:05.192Z,7.00
2023-02-11T08:20:10.828Z,6.98
2023-02-11T08:22:14.558Z,6.73
2023-02-11T08:24:18.009Z,6.80
2023-02-11T08:26:23.669Z,6.81
2023-02-11T08:28:27.137Z,6.81
2023-02-11T08:30:30.551Z,6.73
2023-02-11T08:32:35.878Z,6.71
2023-02-11T08:34:39.197Z,6.84
2023-02-11T08:36:44.913Z,6.41
2023-02-11T08:38:48.424Z,7.12
2023-02-11T08:40:52.002Z,7.03
2023-02-11T08:42:55.494Z,7.03
2023-02-11T08:44:58.953Z,6.87
2023-02-11T08:47:02.434Z,7.00
2023-02-11T08:49:05.959Z,7.05
2023-02-11T08:51:10.891Z,7.06
2023-02-11T08:53:15.711Z,7.02
2023-02-11T08:55:19.411Z,6.81
2023-02-11T08:57:22.757Z,6.85
2023-02-11T08:59:26.332Z,6.89
2023-02-11T09:01:31.443Z,6.96
2023-02-11T09:03:34.831Z,6.99
2023-02-11T09:05:42.084Z,7.03
2023-02-11T09:07:45.503Z,6.89
2023-02-11T09:09:50.199Z,7.33
2023-02-11T09:11:57.190Z,7.76
2023-02-11T09:14:00.914Z,7.64
2023-02-11T09:16:06.367Z,7.44
2023-02-11T09:18:09.728Z,7.45
2023-02-11T09:20:13.029Z,7.31
2023-02-11T09:22:16.744Z,7.28
2023-02-11T09:24:20.305Z,7.37
2023-02-11T09:26:27.657Z,7.42
2023-02-11T09:28:31.183Z,7.46
2023-02-11T09:30:34.844Z,7.42
2023-02-11T09:32:38.355Z,7.37
2023-02-11T09:34:42.532Z,7.48
2023-02-11T09:36:45.950Z,7.53
2023-02-11T09:38:50.038Z,7.45
2023-02-11T09:40:53.490Z,7.52
2023-02-11T09:43:04.588Z,7.47
2023-02-11T09:45:17.601Z,7.37
2023-02-11T09:47:28.567Z,7.44
2023-02-11T09:49:36.405Z,7.40
2023-02-11T09:51:46.335Z,7.31
2023-02-11T09:53:53.762Z,7.30
2023-02-11T09:55:59.831Z,7.17
2023-02-11T09:58:08.759Z,7.49
2023-02-11T10:00:20.103Z,7.36
2023-02-11T10:02:28.988Z,7.22
2023-02-11T10:04:51.219Z,7.42
2023-02-11T10:06:57.542Z,7.39
2023-02-11T10:09:14.230Z,7.43
2023-02-11T10:11:31.519Z,7.23
2023-02-11T10:13:52.361Z,7.22
2023-02-11T10:16:06.934Z,7.24
2023-02-11T10:18:27.901Z,7.17
2023-02-11T10:20:36.855Z,7.34
2023-02-11T10:22:45.483Z,7.34
2023-02-11T10:24:53.011Z,7.37
2023-02-11T10:26:56.602Z,7.34
2023-02-11T10:29:08.246Z,7.42
2023-02-11T10:31:16.396Z,7.42
2023-02-11T10:33:27.028Z,7.27
2023-02-11T10:35:30.516Z,6.94
2023-02-11T10:37:34.027Z,7.23
2023-02-11T10:39:39.909Z,7.30
2023-02-11T10:41:46.205Z,7.20
2023-02-11T10:43:50.812Z,7.28
2023-02-11T10:45:57.979Z,7.19
2023-02-11T10:48:01.962Z,7.16
2023-02-11T10:50:20.257Z,7.23
2023-02-11T10:52:25.878Z,7.08
2023-02-11T10:54:29.295Z,7.22
2023-02-11T10:56:35.570Z,7.31
2023-02-11T10:58:45.812Z,7.47
2023-02-11T11:00:53.929Z,7.53
2023-02-11T11:03:01.292Z,7.45
2023-02-11T11:05:07.089Z,7.33
2023-02-11T11:07:19.143Z,7.41
2023-02-11T11:09:30.945Z,7.37
2023-02-11T11:11:34.440Z,7.39
2023-02-11T11:13:39.880Z,7.47
2023-02-11T11:15:43.321Z,7.39
2023-02-11T11:17:46.882Z,7.42
2023-02-11T11:19:51.711Z,7.43
2023-02-11T11:21:56.985Z,7.51
2023-02-11T11:24:03.335Z,7.58
2023-02-11T11:26:11.123Z,7.53
2023-02-11T11:28:25.216Z,7.37
2023-02-11T11:30:39.804Z,7.42
2023-02-11T11:32:43.726Z,7.48
2023-02-11T11:34:54.046Z,7.60
2023-02-11T11:36:59.527Z,7.58
2023-02-11T11:39:13.596Z,7.62
2023-02-11T11:41:21.859Z,7.72
2023-02-11T11:43:25.347Z,7.53
2023-02-11T11:45:28.838Z,7.59
2023-02-11T11:47:39.380Z,7.63
2023-02-11T11:49:48.630Z,7.53
2023-02-11T11:51:59.816Z,7.79
2023-02-11T11:54:07.390Z,7.65
2023-02-11T11:56:15.315Z,7.65
2023-02-11T11:58:20.986Z,7.55
2023-02-11T12:00:30.501Z,7.54
2023-02-11T12:03:24.694Z,7.49
2023-02-11T12:05:34.287Z,7.59
2023-02-11T12:07:54.102Z,7.39
2023-02-11T12:10:23.943Z,7.63
2023-02-11T12:12:39.844Z,7.78
2023-02-11T12:14:53.813Z,7.72
2023-02-11T12:17:04.078Z,7.82
2023-02-11T12:19:38.151Z,7.92
2023-02-11T12:21:51.207Z,7.92
2023-02-11T12:24:15.694Z,7.87
2023-02-11T12:26:23.093Z,7.93
2023-02-11T12:28:36.986Z,7.87
2023-02-11T12:30:54.370Z,7.87
2023-02-11T12:33:12.730Z,7.93
2023-02-11T12:35:30.597Z,7.83
2023-02-11T12:37:45.260Z,7.81
2023-02-11T12:39:57.823Z,7.78
2023-02-11T12:42:45.812Z,7.85
2023-02-11T12:45:05.871Z,7.84
2023-02-11T12:47:22.148Z,7.82
2023-02-11T12:49:46.577Z,7.86
2023-02-11T12:52:08.148Z,7.78
2023-02-11T12:54:25.553Z,7.85
2023-02-11T12:56:38.791Z,7.79
2023-02-11T12:58:45.746Z,7.77
2023-02-11T13:00:54.163Z,7.70
2023-02-11T13:03:05.227Z,7.84
2023-02-11T13:05:20.801Z,7.94
2023-02-11T13:07:29.094Z,8.02
2023-02-11T13:09:40.150Z,7.85
2023-02-11T13:11:52.104Z,7.90
2023-02-11T13:14:01.498Z,7.89
2023-02-11T13:16:07.787Z,7.87
2023-02-11T13:18:22.994Z,7.79
2023-02-11T13:20:36.535Z,7.77
2023-02-11T13:22:45.054Z,7.65
2023-02-11T13:24:54.407Z,7.81
2023-02-11T13:27:11.485Z,7.87
2023-02-11T13:29:25.125Z,7.83
2023-02-11T13:31:30.262Z,7.89
2023-02-11T13:33:36.082Z,7.97
2023-02-11T13:35:41.146Z,7.99
2023-02-11T13:37:49.072Z,7.99
2023-02-11T13:40:01.013Z,8.12
2023-02-11T13:42:06.169Z,8.09
2023-02-11T13:44:26.384Z,8.08
2023-02-11T13:46:49.852Z,8.08
2023-02-11T13:48:55.122Z,8.01
2023-02-11T13:51:01.621Z,7.92
2023-02-11T13:53:07.323Z,8.08
2023-02-11T13:55:22.603Z,7.90
2023-02-11T13:57:45.156Z,8.14
2023-02-11T13:59:51.163Z,8.09
2023-02-11T14:02:24.654Z,8.17
2023-02-11T14:04:48.790Z,8.23
2023-02-11T14:07:44.480Z,8.10
2023-02-11T14:09:48.053Z,8.01
2023-02-11T14:11:55.345Z,7.98
2023-02-11T14:14:18.008Z,8.23
2023-02-11T14:16:36.893Z,8.26
2023-02-11T14:19:00.531Z,8.13
2023-02-11T14:21:13.173Z,8.07
2023-02-11T14:23:27.318Z,8.08
2023-02-11T14:25:31.402Z,8.34
2023-02-11T14:27:43.392Z,8.38
2023-02-11T14:29:59.495Z,8.47
2023-02-11T14:32:09.928Z,8.52
2023-02-11T14:34:35.702Z,8.57
2023-02-11T14:37:04.984Z,8.47
2023-02-11T14:39:18.488Z,8.56
2023-02-11T14:41:25.347Z,8.57
2023-02-11T14:43:34.359Z,8.60
2023-02-11T14:45:40.297Z,8.67
2023-02-11T14:47:50.554Z,8.53
2023-02-11T14:49:55.226Z,8.58
2023-02-11T14:52:05.052Z,8.49
2023-02-11T14:54:15.196Z,8.36
2023-02-11T14:56:21.613Z,8.43
2023-02-11T14:58:26.722Z,8.21
2023-02-11T15:00:30.495Z,8.31
2023-02-11T15:02:38.313Z,8.23
2023-02-11T15:04:42.829Z,8.33
2023-02-11T15:06:49.583Z,8.38
2023-02-11T15:08:57.196Z,8.31
2023-02-11T15:11:03.890Z,8.36
2023-02-11T15:13:07.578Z,8.33
2023-02-11T15:15:14.632Z,8.43
2023-02-11T15:17:23.122Z,8.40
2023-02-11T15:19:34.408Z,8.56
2023-02-11T15:21:38.275Z,8.40
2023-02-11T15:23:46.133Z,8.51
2023-02-11T15:25:52.977Z,8.48
2023-02-11T15:27:58.574Z,8.59
2023-02-11T15:30:02.139Z,8.58
2023-02-11T15:32:07.756Z,8.61
2023-02-11T15:34:13.197Z,8.47
2023-02-11T15:36:20.432Z,8.68
2023-02-11T15:38:24.287Z,8.70
2023-02-11T15:40:29.799Z,8.72
2023-02-11T15:42:47.240Z,8.76
2023-02-11T15:45:11.777Z,8.79
2023-02-11T15:47:20.865Z,8.62
2023-02-11T15:49:25.373Z,8.52
2023-02-11T15:51:34.211Z,8.62
2023-02-11T15:53:41.004Z,8.79
2023-02-11T15:55:44.576Z,8.81
2023-02-11T15:57:53.545Z,8.73
2023-02-11T15:59:57.414Z,8.73
2023-02-11T16:02:08.516Z,8.66
2023-02-11T16:04:18.206Z,8.59
2023-02-11T16:06:24.468Z,8.81
2023-02-11T16:08:32.759Z,8.94
2023-02-11T16:10:36.631Z,8.93
2023-02-11T16:12:40.018Z,8.90
2023-02-11T16:14:43.399Z,8.88
2023-02-11T16:16:49.753Z,8.94
2023-02-11T16:19:04.835Z,8.90
2023-02-11T16:21:16.805Z,8.89
2023-02-11T16:23:24.868Z,8.72
2023-02-11T16:25:29.683Z,8.87
2023-02-11T16:27:39.070Z,8.87
2023-02-11T16:29:47.422Z,8.89
2023-02-11T16:31:51.206Z,8.86
2023-02-11T16:33:54.525Z,8.86
2023-02-11T16:36:01.970Z,8.81
2023-02-11T16:38:05.290Z,8.67
2023-02-11T16:40:11.891Z,8.62
2023-02-11T16:42:16.650Z,8.71
2023-02-11T16:44:20.521Z,8.64
2023-02-11T16:46:24.094Z,8.64
2023-02-11T16:48:27.496Z,8.65
2023-02-11T16:50:30.947Z,8.67
2023-02-11T16:52:35.029Z,8.14
2023-02-11T16:54:38.342Z,8.73
2023-02-11T16:56:42.178Z,8.79
2023-02-11T16:58:46.900Z,8.82
2023-02-11T17:00:51.377Z,8.81
2023-02-11T17:02:55.065Z,8.66
2023-02-11T17:05:00.916Z,8.69
2023-02-11T17:07:04.323Z,8.64
2023-02-11T17:09:08.562Z,8.53
2023-02-11T17:11:16.601Z,8.64
2023-02-11T17:13:20.228Z,8.57
2023-02-11T17:15:24.899Z,8.62
2023-02-11T17:17:29.308Z,8.62
2023-02-11T17:19:32.678Z,8.62
2023-02-11T17:21:36.077Z,8.63
2023-02-11T17:23:39.465Z,8.58
2023-02-11T17:25:42.763Z,8.67
2023-02-11T17:27:46.204Z,8.56
2023-02-11T17:29:49.540Z,8.53
2023-02-11T17:31:54.512Z,8.59
2023-02-11T17:33:57.945Z,8.55
2023-02-11T17:36:04.637Z,8.74
2023-02-11T17:38:07.970Z,8.77
2023-02-11T17:40:12.803Z,8.82
2023-02-11T17:42:16.131Z,8.84
2023-02-11T17:44:19.436Z,8.89
2023-02-11T17:46:22.958Z,8.82
2023-02-11T17:48:27.808Z,8.68
2023-02-11T17:50:31.139Z,8.64
2023-02-11T17:52:34.465Z,8.63
2023-02-11T17:54:39.536Z,8.69
2023-02-11T17:56:44.103Z,8.70
2023-02-11T17:58:47.734Z,8.76
2023-02-11T18:00:51.440Z,8.83
2023-02-11T18:02:57.475Z,8.76
2023-02-11T18:05:02.447Z,8.72
2023-02-11T18:07:05.790Z,8.79
2023-02-11T18:09:09.137Z,8.64
2023-02-11T18:11:15.003Z,8.84
2023-02-11T18:13:18.413Z,8.93
2023-02-11T18:15:22.024Z,8.96
2023-02-11T18:17:25.465Z,9.00
2023-02-11T18:19:31.973Z,8.91
2023-02-11T18:21:37.570Z,8.91
2023-02-11T18:23:41.028Z,8.97
2023-02-11T18:25:44.900Z,8.94
2023-02-11T18:27:48.265Z,8.78
2023-02-11T18:29:51.783Z,8.70
2023-02-11T18:31:58.311Z,8.63
2023-02-11T18:34:01.966Z,8.71
2023-02-11T18:36:07.336Z,7.97
2023-02-11T18:38:12.125Z,8.57
2023-02-11T18:40:16.326Z,8.62
2023-02-11T18:42:19.639Z,8.71
2023-02-11T18:44:24.608Z,8.69
2023-02-11T18:46:28.111Z,8.74
2023-02-11T18:48:31.672Z,8.74
2023-02-11T18:50:35.033Z,8.74
2023-02-11T18:52:38.454Z,8.78
2023-02-11T18:54:43.146Z,8.88
2023-02-11T18:56:46.545Z,8.82
2023-02-11T18:58:51.371Z,8.82
2023-02-11T19:00:54.787Z,8.88
2023-02-11T19:02:58.749Z,8.94
2023-02-11T19:05:02.442Z,8.97
2023-02-11T19:07:05.760Z,8.87
2023-02-11T19:09:11.881Z,8.93
2023-02-11T19:11:18.625Z,8.85
2023-02-11T19:13:21.950Z,8.90
2023-02-11T19:15:25.710Z,8.91
2023-02-11T19:17:28.997Z,8.90
2023-02-11T19:19:35.991Z,8.63
2023-02-11T19:21:39.435Z,8.68
2023-02-11T19:23:43.078Z,8.76
2023-02-11T19:25:47.686Z,8.76
2023-02-11T19:27:52.425Z,8.89
2023-02-11T19:29:55.762Z,8.88
2023-02-11T19:31:59.160Z,8.95
2023-02-11T19:34:03.973Z,8.99
2023-02-11T19:36:09.631Z,8.97
2023-02-11T19:38:13.966Z,9.01
2023-02-11T19:40:17.691Z,9.03
2023-02-11T19:42:21.093Z,9.03
2023-02-11T19:44:25.947Z,8.87
2023-02-11T19:46:31.250Z,9.07
2023-02-11T19:48:34.812Z,9.06
2023-02-11T19:50:41.047Z,9.08
2023-02-11T19:52:44.351Z,8.95
2023-02-11T19:54:48.072Z,8.87
2023-02-11T19:56:51.402Z,9.02
2023-02-11T19:58:55.183Z,9.01
2023-02-11T20:01:07.557Z,8.99
2023-02-11T20:03:11.001Z,9.05
2023-02-11T20:05:14.402Z,9.10
2023-02-11T20:07:18.360Z,9.13
2023-02-11T20:09:22.762Z,9.12
2023-02-11T20:11:28.176Z,9.11
2023-02-11T20:13:31.846Z,9.12
2023-02-11T20:15:35.235Z,9.06
2023-02-11T20:17:39.998Z,9.02
2023-02-11T20:19:43.306Z,9.11
2023-02-11T20:21:48.429Z,9.13
2023-02-11T20:23:52.752Z,9.14
2023-02-11T20:25:56.301Z,9.14
2023-02-11T20:27:59.650Z,9.12
2023-02-11T20:30:03.000Z,9.05
2023-02-11T20:32:06.623Z,9.15
2023-02-11T20:34:12.487Z,9.01
2023-02-11T20:36:17.819Z,9.17
2023-02-11T20:38:21.265Z,9.18
2023-02-11T20:40:24.933Z,9.21
2023-02-11T20:42:28.574Z,9.23
2023-02-11T20:44:31.929Z,9.10
2023-02-11T20:46:38.026Z,9.27
2023-02-11T20:48:41.913Z,9.27
2023-02-11T20:50:48.307Z,9.23
2023-02-11T20:52:51.960Z,9.20
2023-02-11T20:54:55.319Z,9.21
2023-02-11T20:56:59.717Z,9.01
2023-02-11T20:59:04.342Z,9.16
2023-02-11T21:01:08.875Z,9.17
2023-02-11T21:03:12.233Z,9.20
2023-02-11T21:05:15.835Z,9.19
2023-02-11T21:07:20.493Z,9.19
2023-02-11T21:09:25.801Z,9.19
2023-02-11T21:11:31.089Z,9.19
2023-02-11T21:13:34.436Z,9.16
2023-02-11T21:15:37.780Z,9.08
2023-02-11T21:17:41.181Z,9.17
2023-02-11T21:19:44.825Z,8.97
2023-02-11T21:21:48.321Z,9.19
2023-02-11T21:23:53.675Z,8.63
2023-02-11T21:25:57.871Z,9.22
2023-02-11T21:28:01.233Z,9.21
2023-02-11T21:30:05.350Z,9.23
2023-02-11T21:32:08.805Z,9.22
2023-02-11T21:34:12.824Z,9.22
2023-02-11T21:36:16.143Z,9.18
2023-02-11T21:38:19.581Z,9.25
2023-02-11T21:40:27.344Z,9.27
2023-02-11T21:42:30.756Z,9.28
2023-02-11T21:44:34.116Z,9.27
2023-02-11T21:46:37.682Z,9.25
2023-02-11T21:48:41.402Z,9.11
2023-02-11T21:50:46.515Z,9.07
2023-02-11T21:52:49.866Z,9.10
2023-02-11T21:54:53.190Z,9.10
2023-02-11T21:56:58.053Z,9.11
2023-02-11T21:59:01.773Z,9.12
2023-02-11T22:01:12.370Z,9.13
2023-02-11T22:03:15.729Z,9.12
2023-02-11T22:05:19.187Z,9.13
2023-02-11T22:07:22.746Z,9.11
2023-02-11T22:09:26.079Z,9.10
2023-02-11T22:11:29.563Z,9.11
2023-02-11T22:13:34.785Z,9.06
2023-02-11T22:15:38.062Z,9.07
2023-02-11T22:17:41.509Z,9.07
2023-02-11T22:19:44.810Z,9.06
2023-02-11T22:21:48.197Z,9.04
2023-02-11T22:23:52.014Z,8.83
2023-02-11T22:25:55.829Z,9.06
2023-02-11T22:27:59.410Z,8.99
2023-02-11T22:30:04.888Z,8.91
2023-02-11T22:32:08.374Z,8.91
2023-02-11T22:34:11.713Z,8.90
2023-02-11T22:36:17.082Z,8.94
2023-02-11T22:38:20.718Z,8.95
2023-02-11T22:40:24.993Z,8.91
2023-02-11T22:42:28.351Z,8.90
2023-02-11T22:44:31.654Z,8.83
2023-02-11T22:46:36.919Z,8.74
2023-02-11T22:48:41.281Z,8.73
2023-02-11T22:50:44.625Z,8.58
2023-02-11T22:52:48.007Z,8.79
2023-02-11T22:54:51.971Z,8.83
2023-02-11T22:56:55.345Z,8.85
2023-02-11T22:58:59.633Z,8.88
2023-02-11T23:01:03.108Z,8.91
2023-02-11T23:03:09.563Z,8.91
2023-02-11T23:05:12.878Z,8.93
2023-02-11T23:07:16.240Z,8.93
2023-02-11T23:09:19.596Z,8.84
2023-02-11T23:11:28.298Z,8.85
2023-02-11T23:13:31.648Z,8.87
2023-02-11T23:15:35.417Z,8.89
2023-02-11T23:17:38.762Z,8.91
2023-02-11T23:19:43.423Z,8.89
2023-02-11T23:21:47.630Z,8.89
2023-02-11T23:23:56.062Z,8.92
2023-02-11T23:25:59.465Z,8.89
2023-02-11T23:28:02.930Z,8.90
2023-02-11T23:30:07.462Z,8.92
2023-02-11T23:32:10.851Z,8.88
2023-02-11T23:34:17.090Z,8.54
2023-02-11T23:36:22.976Z,8.78
2023-02-11T23:38:26.465Z,8.72
2023-02-11T23:40:29.752Z,8.73
2023-02-11T23:42:33.009Z,8.67
2023-02-11T23:44:36.279Z,8.67
2023-02-11T23:46:39.926Z,8.70
2023-02-11T23:48:45.055Z,8.73
2023-02-11T23:50:48.728Z,8.72
2023-02-11T23:52:53.489Z,8.81
2023-02-11T23:54:56.828Z,8.82
2023-02-11T23:57:00.268Z,8.80
2023-02-11T23:59:03.687Z,8.82
